Aérodrome :
LOGIN :

S'inscrire | Disclaimer

   EN    FR    IT 

 










Légende :    VFR   VFR Marginal   IFR   IFR Intensif   IFR Très Intensif
Visi : 
Plafond : 
>= 8 km
>= 3000ft
5 à 8 km
1000 à 3000 ft
1500m à 5 km
500 à 1000 ft
800 à 1500m
200 à 500 ft
< 800m
< 200 ft
Symboles :   Orages  Brouillard  Fortes neiges  Fortes précipitations  Vent > 20 kt
SIGMETs :   Divers  Orages  Givrage  Turbulence  Onde Orograph.  Cendres Volcan.






- Altitude de l'aérodrome : 25 ft
- Code IATA : QCY


EGXC - RAF Coningsby

DERNIER METAR :
  • 272050Z 09004KT 6000 BR SKC 04/03 Q1040 RMK WHT

METARs EXPIRÉS :
  • 271950Z 08005KT 9999 FEW028 05/04 Q1040 RMK BLU
  • 271850Z 05002KT 9999 SCT028 07/03 Q1041 RMK BLU

TAF TAF EGXC
Valide du 27 à 21h jusqu'au 28 à 15h UTC


271949Z 2721/2815 04003KT 9999 FEW025
BECMG 2721/2722 5000 BR
BECMG 2722/2801 3000 BR MIFG
TEMPO 2801/2809 0200 FZFG VV///
BECMG 2809/2811 6000 HZ
BECMG 2811/2813 9999 NSW



MET'MAP, la Météo Aéronautique d'un coup d'oeil ! - Copyright ORBIFLY Décembre 2007 - Disclaimer

ORBIFLY MET'MAP TEAM :

Programmation & Développement : Alexandra Zaïnal
Sur une idée originale de : Baudouin d'Aumeries
Assistance à la programmation : Marc-Olivier Méhu
Soutien technique & logistique : Manuel Goepfert

Contact : metmap@orbifly.com




SOURCES & CREDITS :

   NOAA